Time;durP1;ratioP1;P1;durP2;ratioP2;P2;SDS_P1;SDS_P2;PMS_P1;PMS_P2;Temp;Humidity;BMP_temperature;BMP_pressure;BME280_temperature;BME280_humidity;BME280_pressure;Samples;Min_cycle;Max_cycle;Signal;HPM_P1;HPM_P2
2022/07/07 00:01:16;;;;;;;4.72;1.40;;;;;;;;;;4734575;30;20059;-59
2022/07/07 00:03:46;;;;;;;4.68;1.10;;;;;;;;;;4734684;30;20413;-56
2022/07/07 00:06:13;;;;;;;3.80;1.05;;;;;;;;;;4735381;30;20083;-60
2022/07/07 00:08:40;;;;;;;6.15;1.45;;;;;;;;;;4735112;30;20080;-57
2022/07/07 00:11:07;;;;;;;26.90;9.77;;;;;;;;;;4735155;30;20525;-59
2022/07/07 00:13:37;;;;;;;7.43;3.40;;;;;;;;;;4735087;30;20075;-59
2022/07/07 00:16:04;;;;;;;2.83;1.10;;;;;;;;;;4735027;30;20052;-59
2022/07/07 00:18:32;;;;;;;3.10;0.85;;;;;;;;;;4735241;30;20418;-59
2022/07/07 00:20:59;;;;;;;2.90;1.40;;;;;;;;;;4735215;30;20398;-59
2022/07/07 00:23:27;;;;;;;2.60;1.10;;;;;;;;;;4735356;30;20051;-59
2022/07/07 00:25:56;;;;;;;3.15;1.35;;;;;;;;;;4734877;30;20045;-60
2022/07/07 00:28:23;;;;;;;5.43;1.13;;;;;;;;;;4735199;30;20053;-59
2022/07/07 00:30:50;;;;;;;2.42;1.00;;;;;;;;;;4734877;30;20056;-59
2022/07/07 00:33:17;;;;;;;2.60;1.33;;;;;;;;;;4734817;30;20139;-59
2022/07/07 00:35:45;;;;;;;6.15;1.70;;;;;;;;;;4734969;30;20060;-59
2022/07/07 00:38:13;;;;;;;7.40;2.47;;;;;;;;;;4734559;30;20069;-59
2022/07/07 00:40:40;;;;;;;3.08;1.00;;;;;;;;;;4734807;30;20049;-59
2022/07/07 00:43:07;;;;;;;2.53;1.00;;;;;;;;;;4734614;30;20049;-60
2022/07/07 00:45:35;;;;;;;5.03;1.40;;;;;;;;;;4734364;30;20045;-59
2022/07/07 00:48:04;;;;;;;1.83;1.13;;;;;;;;;;4734615;30;20044;-59
2022/07/07 00:50:32;;;;;;;3.58;1.27;;;;;;;;;;4734566;30;20092;-59
2022/07/07 00:52:59;;;;;;;2.05;1.27;;;;;;;;;;4734892;30;20045;-59
2022/07/07 00:55:26;;;;;;;7.75;1.55;;;;;;;;;;4734084;30;20057;-59
2022/07/07 00:57:54;;;;;;;6.05;1.73;;;;;;;;;;4733818;30;20061;-59
2022/07/07 01:00:21;;;;;;;1.73;1.10;;;;;;;;;;4727226;30;20056;-59
2022/07/07 01:02:52;;;;;;;2.50;1.30;;;;;;;;;;4734343;30;20059;-59
2022/07/07 01:05:19;;;;;;;1.90;0.90;;;;;;;;;;4734340;30;20127;-60
2022/07/07 01:07:49;;;;;;;2.78;1.20;;;;;;;;;;4740245;30;20079;-59
2022/07/07 01:10:16;;;;;;;5.07;1.85;;;;;;;;;;4752087;30;20109;-59
2022/07/07 01:12:43;;;;;;;6.13;1.23;;;;;;;;;;4751963;30;20044;-59
2022/07/07 01:15:13;;;;;;;1.63;1.02;;;;;;;;;;4751874;30;20040;-59
2022/07/07 01:17:41;;;;;;;2.88;1.10;;;;;;;;;;4750994;30;20064;-59
2022/07/07 01:20:10;;;;;;;3.08;1.27;;;;;;;;;;4751663;30;20107;-60
2022/07/07 01:22:38;;;;;;;2.72;1.17;;;;;;;;;;4751805;30;20044;-58
2022/07/07 01:25:07;;;;;;;1.95;1.13;;;;;;;;;;4735968;30;20106;-59
2022/07/07 01:27:34;;;;;;;6.97;1.70;;;;;;;;;;4751632;30;20044;-59
2022/07/07 01:30:05;;;;;;;4.13;1.30;;;;;;;;;;4751149;30;20076;-60
2022/07/07 01:32:32;;;;;;;4.00;1.35;;;;;;;;;;4751753;30;20055;-59
2022/07/07 01:34:59;;;;;;;2.45;1.10;;;;;;;;;;4751665;30;20048;-59
2022/07/07 01:37:27;;;;;;;4.13;1.35;;;;;;;;;;4751676;30;20497;-60
2022/07/07 01:39:54;;;;;;;2.78;1.35;;;;;;;;;;4751557;30;20048;-59
2022/07/07 01:42:22;;;;;;;4.25;2.00;;;;;;;;;;4751289;30;20044;-59
2022/07/07 01:44:52;;;;;;;2.47;1.10;;;;;;;;;;4751423;30;20519;-58
2022/07/07 01:47:22;;;;;;;1.17;0.90;;;;;;;;;;4751260;30;20044;-60
2022/07/07 01:49:49;;;;;;;1.90;1.27;;;;;;;;;;4749053;30;20052;-59
2022/07/07 01:52:17;;;;;;;4.10;1.23;;;;;;;;;;4733707;30;20060;-59
2022/07/07 01:54:45;;;;;;;1.40;1.00;;;;;;;;;;4733757;30;20049;-59
2022/07/07 01:57:12;;;;;;;2.70;1.50;;;;;;;;;;4733418;30;20049;-59
2022/07/07 01:59:39;;;;;;;3.33;1.70;;;;;;;;;;4733594;30;20052;-59
2022/07/07 02:02:07;;;;;;;2.47;1.35;;;;;;;;;;4733396;30;20103;-59
2022/07/07 02:04:34;;;;;;;4.28;1.50;;;;;;;;;;4733506;30;20044;-59
2022/07/07 02:07:01;;;;;;;2.97;1.42;;;;;;;;;;4733627;30;20510;-58
2022/07/07 02:09:29;;;;;;;3.80;1.10;;;;;;;;;;4733636;30;20045;-59
2022/07/07 02:11:56;;;;;;;8.65;1.17;;;;;;;;;;4733739;30;20104;-59
2022/07/07 02:14:23;;;;;;;1.92;1.05;;;;;;;;;;4733392;30;20615;-59
2022/07/07 02:16:51;;;;;;;4.28;1.67;;;;;;;;;;4733595;30;20064;-59
2022/07/07 02:19:18;;;;;;;3.25;1.50;;;;;;;;;;4733388;30;20102;-60
2022/07/07 02:21:46;;;;;;;2.42;1.27;;;;;;;;;;4733497;30;20060;-59
2022/07/07 02:24:13;;;;;;;3.85;1.10;;;;;;;;;;4733381;30;20538;-59
2022/07/07 02:26:40;;;;;;;3.88;1.50;;;;;;;;;;4733295;30;20431;-59
2022/07/07 02:29:09;;;;;;;3.92;1.60;;;;;;;;;;4736634;30;20525;-59
2022/07/07 02:31:37;;;;;;;5.10;2.67;;;;;;;;;;4736789;30;20521;-59
2022/07/07 02:34:05;;;;;;;2.45;1.80;;;;;;;;;;4736523;30;20055;-60
2022/07/07 02:36:32;;;;;;;4.07;1.25;;;;;;;;;;4736977;30;20051;-59
2022/07/07 02:39:00;;;;;;;2.47;1.50;;;;;;;;;;4736978;30;20041;-59
2022/07/07 02:41:27;;;;;;;2.47;1.25;;;;;;;;;;4736880;30;20060;-59
2022/07/07 02:43:54;;;;;;;1.52;1.30;;;;;;;;;;4736622;30;20040;-59
2022/07/07 02:46:22;;;;;;;2.17;1.63;;;;;;;;;;4736324;30;20095;-59
2022/07/07 02:48:49;;;;;;;5.38;1.60;;;;;;;;;;4736600;30;20132;-59
2022/07/07 02:51:16;;;;;;;2.53;1.67;;;;;;;;;;4736175;30;20088;-59
2022/07/07 02:53:46;;;;;;;3.55;1.80;;;;;;;;;;4736757;30;20053;-60
2022/07/07 02:56:14;;;;;;;2.00;1.27;;;;;;;;;;4736200;30;20064;-59
2022/07/07 02:58:41;;;;;;;2.63;1.50;;;;;;;;;;4736444;30;20045;-59
2022/07/07 03:01:09;;;;;;;2.50;1.50;;;;;;;;;;4736287;30;20080;-60
2022/07/07 03:03:36;;;;;;;3.65;1.40;;;;;;;;;;4736339;30;20049;-59
2022/07/07 03:06:04;;;;;;;2.38;1.52;;;;;;;;;;4736332;30;20071;-59
2022/07/07 03:08:31;;;;;;;1.67;1.15;;;;;;;;;;4736428;30;20049;-59
2022/07/07 03:10:59;;;;;;;1.58;1.10;;;;;;;;;;4736468;30;20140;-59
2022/07/07 03:13:26;;;;;;;3.15;1.10;;;;;;;;;;4736483;30;20107;-60
2022/07/07 03:15:55;;;;;;;3.03;1.00;;;;;;;;;;4736084;30;20169;-59
2022/07/07 03:18:22;;;;;;;5.57;1.13;;;;;;;;;;4735990;30;20049;-60
2022/07/07 03:20:51;;;;;;;1.75;0.90;;;;;;;;;;4736330;30;20052;-59
2022/07/07 03:23:19;;;;;;;3.40;0.85;;;;;;;;;;4735581;30;20460;-60
2022/07/07 03:25:46;;;;;;;1.95;0.93;;;;;;;;;;4730579;30;20600;-60
2022/07/07 03:28:14;;;;;;;3.22;1.00;;;;;;;;;;4718467;30;20072;-60
2022/07/07 03:30:44;;;;;;;0.82;0.65;;;;;;;;;;4718507;30;20095;-60
2022/07/07 03:33:11;;;;;;;1.10;0.40;;;;;;;;;;4702779;30;20041;-60
2022/07/07 03:35:42;;;;;;;1.92;0.77;;;;;;;;;;4718458;30;20136;-60
2022/07/07 03:38:09;;;;;;;1.20;0.50;;;;;;;;;;4718243;30;20045;-60
2022/07/07 03:40:36;;;;;;;3.83;0.80;;;;;;;;;;4717566;30;20063;-60
2022/07/07 03:43:03;;;;;;;1.50;0.80;;;;;;;;;;4718407;30;20132;-60
2022/07/07 03:45:31;;;;;;;3.90;0.80;;;;;;;;;;4717872;30;20055;-57
2022/07/07 03:47:58;;;;;;;0.93;0.50;;;;;;;;;;4718423;30;20064;-60
2022/07/07 03:50:26;;;;;;;2.28;0.80;;;;;;;;;;4724536;30;20045;-61
2022/07/07 03:52:53;;;;;;;1.95;0.60;;;;;;;;;;4735603;30;20065;-60
2022/07/07 03:55:21;;;;;;;0.90;0.70;;;;;;;;;;4728715;30;20444;-60
2022/07/07 03:57:48;;;;;;;0.70;0.50;;;;;;;;;;4735482;30;20061;-60
2022/07/07 04:00:15;;;;;;;2.05;0.85;;;;;;;;;;4735271;30;20060;-60
2022/07/07 04:02:42;;;;;;;2.50;0.70;;;;;;;;;;4735494;30;20131;-60
2022/07/07 04:05:10;;;;;;;2.10;0.50;;;;;;;;;;4735361;30;20052;-61
2022/07/07 04:07:37;;;;;;;3.33;0.93;;;;;;;;;;4735191;30;20048;-60
2022/07/07 04:10:05;;;;;;;1.13;0.57;;;;;;;;;;4734742;30;20095;-60
2022/07/07 04:12:32;;;;;;;18.48;9.98;;;;;;;;;;4735208;30;20514;-59
2022/07/07 04:15:00;;;;;;;7.53;4.50;;;;;;;;;;4735449;30;20045;-60
2022/07/07 04:17:27;;;;;;;3.05;0.75;;;;;;;;;;4735234;30;20128;-60
2022/07/07 04:19:54;;;;;;;1.40;0.43;;;;;;;;;;4734914;30;20047;-60
2022/07/07 04:22:22;;;;;;;1.17;0.50;;;;;;;;;;4735101;30;20143;-60
2022/07/07 04:24:49;;;;;;;4.50;1.85;;;;;;;;;;4734625;30;20048;-61
2022/07/07 04:27:16;;;;;;;2.53;1.27;;;;;;;;;;4735045;30;20132;-60
2022/07/07 04:29:45;;;;;;;3.50;0.98;;;;;;;;;;4735015;30;20060;-60
2022/07/07 04:32:12;;;;;;;1.02;0.50;;;;;;;;;;4734607;30;20398;-62
2022/07/07 04:34:39;;;;;;;3.13;0.73;;;;;;;;;;4733913;30;20131;-60
2022/07/07 04:37:06;;;;;;;1.27;0.50;;;;;;;;;;4733806;30;20071;-59
2022/07/07 04:39:35;;;;;;;1.33;0.60;;;;;;;;;;4737761;30;20049;-60
2022/07/07 04:42:05;;;;;;;1.92;0.60;;;;;;;;;;4751762;30;20517;-60
2022/07/07 04:44:35;;;;;;;10.23;5.07;;;;;;;;;;4751953;30;20044;-61
2022/07/07 04:47:03;;;;;;;4.18;1.25;;;;;;;;;;4733956;30;20044;-58
2022/07/07 04:49:31;;;;;;;1.17;0.40;;;;;;;;;;4752157;30;20044;-62
2022/07/07 04:51:58;;;;;;;0.95;0.50;;;;;;;;;;4717089;30;20501;-62
2022/07/07 04:54:25;;;;;;;1.75;0.40;;;;;;;;;;4717179;30;20041;-62
2022/07/07 04:56:53;;;;;;;1.92;0.68;;;;;;;;;;4716064;30;20116;-52
2022/07/07 04:59:23;;;;;;;1.98;0.40;;;;;;;;;;4716780;30;20053;-63
2022/07/07 05:01:50;;;;;;;1.95;0.50;;;;;;;;;;4717168;30;20053;-62
2022/07/07 05:04:17;;;;;;;1.02;0.40;;;;;;;;;;4716837;30;20411;-62
2022/07/07 05:06:45;;;;;;;8.93;7.13;;;;;;;;;;4716492;30;20048;-63
2022/07/07 05:09:12;;;;;;;15.90;9.43;;;;;;;;;;4716625;30;20453;-62
2022/07/07 05:11:39;;;;;;;1.65;0.50;;;;;;;;;;4716510;30;20514;-54
2022/07/07 05:14:06;;;;;;;0.88;0.30;;;;;;;;;;4721264;30;20106;-62
2022/07/07 05:16:34;;;;;;;1.00;0.30;;;;;;;;;;4733945;30;20056;-61
2022/07/07 05:19:02;;;;;;;0.68;0.30;;;;;;;;;;4734105;30;20056;-57
2022/07/07 05:21:29;;;;;;;2.85;0.50;;;;;;;;;;4734257;30;20481;-62
2022/07/07 05:23:56;;;;;;;1.55;0.30;;;;;;;;;;4734197;30;20121;-62
2022/07/07 05:26:23;;;;;;;1.60;0.50;;;;;;;;;;4733778;30;20047;-63
2022/07/07 05:28:51;;;;;;;0.50;0.22;;;;;;;;;;4733851;30;20427;-63
2022/07/07 05:31:18;;;;;;;74.10;36.85;;;;;;;;;;4733871;30;20070;-61
2022/07/07 05:33:45;;;;;;;17.05;7.93;;;;;;;;;;4733740;30;20056;-63
2022/07/07 05:36:13;;;;;;;2.42;0.60;;;;;;;;;;4733562;30;20053;-62
2022/07/07 05:38:40;;;;;;;0.45;0.40;;;;;;;;;;4733577;30;20073;-56
2022/07/07 05:41:07;;;;;;;1.48;0.30;;;;;;;;;;4733894;30;20498;-61
2022/07/07 05:43:35;;;;;;;1.63;0.43;;;;;;;;;;4733537;30;20473;-61
2022/07/07 05:46:02;;;;;;;0.52;0.47;;;;;;;;;;4733332;30;20112;-61
2022/07/07 05:48:30;;;;;;;0.40;0.30;;;;;;;;;;4733547;30;20049;-62
2022/07/07 05:50:57;;;;;;;2.63;0.35;;;;;;;;;;4733655;30;20517;-63
2022/07/07 05:53:24;;;;;;;1.25;0.30;;;;;;;;;;4733357;30;20098;-63
2022/07/07 05:55:52;;;;;;;14.32;6.93;;;;;;;;;;4733402;30;20115;-64
2022/07/07 05:58:19;;;;;;;1.10;0.60;;;;;;;;;;4733591;30;20502;-61
2022/07/07 06:00:47;;;;;;;0.45;0.28;;;;;;;;;;4733012;30;20112;-63
2022/07/07 06:03:14;;;;;;;1.05;0.40;;;;;;;;;;4733157;30;20047;-63
2022/07/07 06:05:43;;;;;;;1.42;0.22;;;;;;;;;;4733292;30;20064;-62
2022/07/07 06:08:10;;;;;;;0.80;0.32;;;;;;;;;;4733338;30;20048;-62
2022/07/07 06:10:37;;;;;;;1.65;0.20;;;;;;;;;;4732245;30;20116;-62
2022/07/07 06:13:05;;;;;;;0.63;0.40;;;;;;;;;;4733257;30;20494;-63
2022/07/07 06:15:33;;;;;;;1.85;0.60;;;;;;;;;;4702297;30;20363;-61
2022/07/07 06:18:02;;;;;;;1.45;0.30;;;;;;;;;;4733042;30;20049;-62
2022/07/07 06:20:35;;;;;;;4.28;1.98;;;;;;;;;;4733360;30;20519;-63
2022/07/07 06:23:03;;;;;;;1.33;0.40;;;;;;;;;;4733779;30;20055;-56
2022/07/07 06:25:30;;;;;;;0.75;0.30;;;;;;;;;;4733539;30;20414;-62
2022/07/07 06:27:58;;;;;;;0.82;0.38;;;;;;;;;;4733613;30;20045;-61
2022/07/07 06:30:25;;;;;;;0.32;0.20;;;;;;;;;;4733167;30;20109;-62
2022/07/07 06:32:53;;;;;;;0.77;0.30;;;;;;;;;;4733252;30;20148;-62
2022/07/07 06:35:22;;;;;;;1.38;0.28;;;;;;;;;;4726217;30;20501;-62
2022/07/07 06:37:49;;;;;;;1.25;0.40;;;;;;;;;;4733544;30;20052;-55
2022/07/07 06:40:16;;;;;;;1.73;0.40;;;;;;;;;;4733131;30;20052;-62
2022/07/07 06:42:43;;;;;;;4.93;0.40;;;;;;;;;;4732945;30;20505;-61
2022/07/07 06:45:21;;;;;;;1.83;0.25;;;;;;;;;;4710330;30;20426;-62
2022/07/07 06:47:48;;;;;;;1.05;0.38;;;;;;;;;;4733367;30;20142;-57
2022/07/07 06:50:23;;;;;;;0.82;0.38;;;;;;;;;;4726097;30;20053;-62
2022/07/07 06:52:50;;;;;;;0.88;0.30;;;;;;;;;;4717576;30;20049;-62
2022/07/07 06:55:18;;;;;;;0.88;0.30;;;;;;;;;;4733186;30;20464;-58
2022/07/07 06:57:45;;;;;;;1.45;0.32;;;;;;;;;;4712087;30;20052;-55
2022/07/07 07:00:13;;;;;;;1.75;0.60;;;;;;;;;;4732736;30;20081;-60
2022/07/07 07:02:44;;;;;;;0.40;0.40;;;;;;;;;;4733382;30;20079;-56
2022/07/07 07:05:12;;;;;;;0.82;0.30;;;;;;;;;;4733169;30;20131;-56
2022/07/07 07:07:40;;;;;;;0.50;0.30;;;;;;;;;;4733003;30;20076;-56
2022/07/07 07:10:08;;;;;;;0.88;0.30;;;;;;;;;;4733260;30;20140;-56
2022/07/07 07:12:36;;;;;;;1.75;0.20;;;;;;;;;;4733015;30;20067;-61
2022/07/07 07:15:04;;;;;;;2.05;0.40;;;;;;;;;;4734438;30;20049;-58
2022/07/07 07:17:31;;;;;;;26.42;12.10;;;;;;;;;;4736364;30;20102;-61
2022/07/07 07:19:58;;;;;;;9.02;3.35;;;;;;;;;;4736222;30;20064;-54
2022/07/07 07:22:26;;;;;;;1.48;0.40;;;;;;;;;;4736175;30;20456;-61
2022/07/07 07:24:54;;;;;;;1.80;0.40;;;;;;;;;;4735972;30;20048;-57
2022/07/07 07:27:21;;;;;;;1.42;0.40;;;;;;;;;;4728655;30;20416;-61
2022/07/07 07:29:49;;;;;;;3.03;0.30;;;;;;;;;;4736065;30;20473;-54
2022/07/07 07:32:16;;;;;;;0.90;0.52;;;;;;;;;;4735672;30;20055;-56
2022/07/07 07:34:43;;;;;;;1.08;0.40;;;;;;;;;;4735890;30;20501;-60
2022/07/07 07:37:10;;;;;;;0.75;0.32;;;;;;;;;;4735648;30;20051;-51
2022/07/07 07:39:38;;;;;;;1.60;0.30;;;;;;;;;;4735437;30;20049;-56
2022/07/07 07:42:05;;;;;;;0.30;0.30;;;;;;;;;;4735671;30;20059;-56
2022/07/07 07:47:21;;;;;;;0.30;0.10;;;;;;;;;;4736251;30;20045;-56
2022/07/07 07:49:48;;;;;;;0.75;0.25;;;;;;;;;;4735775;30;20052;-58
2022/07/07 07:52:18;;;;;;;56.40;33.72;;;;;;;;;;4735470;30;20092;-53
2022/07/07 07:54:45;;;;;;;2.97;1.02;;;;;;;;;;4735810;30;20067;-56
2022/07/07 07:57:12;;;;;;;1.23;0.30;;;;;;;;;;4735017;30;20056;-62
2022/07/07 07:59:40;;;;;;;0.65;0.50;;;;;;;;;;4735558;30;20086;-56
2022/07/07 08:02:10;;;;;;;2.05;0.30;;;;;;;;;;4735269;30;20044;-55
2022/07/07 08:04:37;;;;;;;1.25;0.40;;;;;;;;;;4735338;30;20100;-55
2022/07/07 08:07:05;;;;;;;0.93;0.32;;;;;;;;;;4735242;30;20056;-54
2022/07/07 08:09:32;;;;;;;0.93;0.30;;;;;;;;;;4735058;30;20055;-54
2022/07/07 08:12:00;;;;;;;1.13;0.40;;;;;;;;;;4735320;30;20521;-54
2022/07/07 08:14:27;;;;;;;6.13;2.42;;;;;;;;;;4735425;30;20114;-57
2022/07/07 08:16:54;;;;;;;1.85;0.60;;;;;;;;;;4735236;30;20056;-55
2022/07/07 08:19:24;;;;;;;0.70;0.20;;;;;;;;;;4734595;30;20053;-62
2022/07/07 08:21:51;;;;;;;1.20;0.40;;;;;;;;;;4734637;30;20512;-55
2022/07/07 08:24:19;;;;;;;1.52;0.30;;;;;;;;;;4735225;30;20110;-54
2022/07/07 08:26:46;;;;;;;1.73;0.45;;;;;;;;;;4734565;30;20110;-56
2022/07/07 08:29:14;;;;;;;1.77;0.50;;;;;;;;;;4735033;30;20482;-55
2022/07/07 08:31:41;;;;;;;1.58;0.40;;;;;;;;;;4734637;30;20045;-61
2022/07/07 08:34:09;;;;;;;3.83;0.70;;;;;;;;;;4735036;30;20139;-58
2022/07/07 08:36:36;;;;;;;1.15;0.40;;;;;;;;;;4734941;30;20068;-56
2022/07/07 08:39:04;;;;;;;1.17;0.30;;;;;;;;;;4734897;30;20060;-57
2022/07/07 08:41:31;;;;;;;0.47;0.30;;;;;;;;;;4734834;30;20106;-61
2022/07/07 08:43:59;;;;;;;2.78;0.40;;;;;;;;;;4734901;30;20460;-58
2022/07/07 08:46:26;;;;;;;2.15;0.60;;;;;;;;;;4734673;30;20056;-59
2022/07/07 08:48:54;;;;;;;1.27;0.30;;;;;;;;;;4734728;30;20079;-58
2022/07/07 08:51:22;;;;;;;3.13;0.50;;;;;;;;;;4714557;30;20107;-55
2022/07/07 08:53:49;;;;;;;1.13;0.30;;;;;;;;;;4717064;30;20057;-55
2022/07/07 08:56:18;;;;;;;1.77;0.40;;;;;;;;;;4716403;30;20053;-55
2022/07/07 08:58:46;;;;;;;0.70;0.30;;;;;;;;;;4717184;30;20049;-55
2022/07/07 09:01:30;;;;;;;2.20;0.32;;;;;;;;;;4711023;30;20045;-55
2022/07/07 09:03:58;;;;;;;1.25;0.40;;;;;;;;;;4717161;30;20103;-57
2022/07/07 09:06:26;;;;;;;1.27;0.32;;;;;;;;;;4701179;30;20406;-56
2022/07/07 09:08:54;;;;;;;1.00;0.30;;;;;;;;;;4716760;30;20511;-57
2022/07/07 09:11:25;;;;;;;0.90;0.45;;;;;;;;;;4716463;30;20426;-60
2022/07/07 09:14:17;;;;;;;0.60;0.20;;;;;;;;;;4716815;30;20069;-55
2022/07/07 09:16:44;;;;;;;1.20;0.40;;;;;;;;;;4729713;30;20068;-60
2022/07/07 09:19:20;;;;;;;5.40;2.53;;;;;;;;;;4734041;30;20383;-58
2022/07/07 09:21:48;;;;;;;4.30;0.90;;;;;;;;;;4733776;30;20059;-58
2022/07/07 09:24:16;;;;;;;1.40;0.45;;;;;;;;;;4733182;30;20051;-55
2022/07/07 09:26:45;;;;;;;1.17;0.52;;;;;;;;;;4733001;30;20505;-60
2022/07/07 09:29:17;;;;;;;2.38;0.68;;;;;;;;;;4733732;30;20051;-52
2022/07/07 09:31:59;;;;;;;0.75;0.40;;;;;;;;;;4716278;30;20088;-52
2022/07/07 09:34:30;;;;;;;2.25;0.43;;;;;;;;;;4727707;30;20056;-58
2022/07/07 09:39:48;;;;;;;1.20;0.50;;;;;;;;;;4733491;30;20418;-56
2022/07/07 09:42:36;;;;;;;1.17;0.25;;;;;;;;;;4727860;30;20560;-57
2022/07/07 09:45:10;;;;;;;1.95;0.40;;;;;;;;;;4732531;30;20394;-56
2022/07/07 09:47:38;;;;;;;1.25;0.40;;;;;;;;;;4733433;30;20048;-55
2022/07/07 09:50:09;;;;;;;1.65;0.35;;;;;;;;;;4733483;30;20079;-57
2022/07/07 09:52:39;;;;;;;1.38;0.40;;;;;;;;;;4743300;30;20065;-58
2022/07/07 09:55:09;;;;;;;2.67;0.40;;;;;;;;;;4749451;30;20409;-61
2022/07/07 09:57:39;;;;;;;1.35;0.50;;;;;;;;;;4750836;30;20056;-60
2022/07/07 10:00:08;;;;;;;0.82;0.30;;;;;;;;;;4751033;30;20059;-58
2022/07/07 10:02:38;;;;;;;1.85;0.43;;;;;;;;;;4750630;30;20052;-59
2022/07/07 10:05:06;;;;;;;0.95;0.45;;;;;;;;;;4750173;30;20052;-61
2022/07/07 10:07:34;;;;;;;1.60;0.40;;;;;;;;;;4750796;30;20358;-64
2022/07/07 10:10:08;;;;;;;4.03;0.50;;;;;;;;;;4750960;30;20046;-60
2022/07/07 10:12:44;;;;;;;1.27;0.50;;;;;;;;;;4751281;30;20136;-61
2022/07/07 10:15:12;;;;;;;1.85;0.40;;;;;;;;;;4749835;30;20150;-57
2022/07/07 10:17:41;;;;;;;2.60;0.60;;;;;;;;;;4751085;30;20668;-65
2022/07/07 10:20:09;;;;;;;10.25;6.15;;;;;;;;;;4750810;30;20154;-61
2022/07/07 10:22:37;;;;;;;2.90;0.82;;;;;;;;;;4751071;30;20390;-61
2022/07/07 10:25:10;;;;;;;2.55;0.40;;;;;;;;;;4750616;30;20044;-60
2022/07/07 10:27:42;;;;;;;2.72;0.70;;;;;;;;;;4749509;30;20098;-61
2022/07/07 10:30:29;;;;;;;1.88;0.68;;;;;;;;;;4739028;30;20517;-60
2022/07/07 10:32:57;;;;;;;1.45;0.40;;;;;;;;;;4732854;30;20049;-56
2022/07/07 10:35:25;;;;;;;2.90;0.70;;;;;;;;;;4733515;30;20106;-60
2022/07/07 10:37:54;;;;;;;1.13;0.50;;;;;;;;;;4733382;30;20136;-56
2022/07/07 10:40:30;;;;;;;0.98;0.40;;;;;;;;;;4733203;30;20044;-57
2022/07/07 10:43:27;;;;;;;2.40;0.40;;;;;;;;;;4733036;30;20144;-56
2022/07/07 10:45:56;;;;;;;3.00;0.40;;;;;;;;;;4733531;30;20106;-61
2022/07/07 10:48:42;;;;;;;2.40;0.60;;;;;;;;;;4744754;30;20139;-60
2022/07/07 10:51:23;;;;;;;1.15;0.47;;;;;;;;;;4742142;30;20052;-56
2022/07/07 10:54:10;;;;;;;1.67;0.40;;;;;;;;;;4736835;30;20056;-61
2022/07/07 10:56:53;;;;;;;1.60;0.40;;;;;;;;;;4736417;30;20067;-60
2022/07/07 10:59:22;;;;;;;1.88;0.40;;;;;;;;;;4736360;30;20045;-55
2022/07/07 11:02:01;;;;;;;4.63;1.88;;;;;;;;;;4736451;30;20053;-58
2022/07/07 11:04:56;;;;;;;2.55;0.68;;;;;;;;;;4736815;30;20045;-60
2022/07/07 11:07:24;;;;;;;1.98;0.68;;;;;;;;;;4733714;30;20128;-60
2022/07/07 11:09:59;;;;;;;3.72;0.60;;;;;;;;;;4736226;30;20049;-61
2022/07/07 11:12:44;;;;;;;0.90;0.40;;;;;;;;;;4736390;30;20049;-57
2022/07/07 11:15:15;;;;;;;1.25;0.40;;;;;;;;;;4720350;30;20509;-57
2022/07/07 11:17:43;;;;;;;2.25;0.30;;;;;;;;;;4735960;30;20049;-58
2022/07/07 11:20:16;;;;;;;1.02;0.38;;;;;;;;;;4736251;30;20053;-56
2022/07/07 11:22:51;;;;;;;2.20;0.70;;;;;;;;;;4736311;30;20409;-60
2022/07/07 11:25:23;;;;;;;1.30;0.40;;;;;;;;;;4735971;30;20087;-57
2022/07/07 11:27:51;;;;;;;2.95;0.63;;;;;;;;;;4735979;30;20055;-59
2022/07/07 11:30:25;;;;;;;1.88;0.55;;;;;;;;;;4735878;30;20526;-57
2022/07/07 11:32:57;;;;;;;2.00;0.70;;;;;;;;;;4735636;30;20136;-57
2022/07/07 11:35:29;;;;;;;2.13;0.40;;;;;;;;;;4736090;30;20044;-60
2022/07/07 11:37:56;;;;;;;2.47;0.50;;;;;;;;;;4736030;30;20064;-55
2022/07/07 11:40:24;;;;;;;1.83;0.32;;;;;;;;;;4736452;30;20418;-59
2022/07/07 11:42:52;;;;;;;1.10;0.40;;;;;;;;;;4735897;30;20084;-60
2022/07/07 11:45:21;;;;;;;2.63;0.55;;;;;;;;;;4719819;30;20048;-56
2022/07/07 11:47:50;;;;;;;1.45;0.40;;;;;;;;;;4735729;30;20056;-60
2022/07/07 11:50:18;;;;;;;1.67;0.40;;;;;;;;;;4729811;30;20470;-60
2022/07/07 11:52:50;;;;;;;0.93;0.40;;;;;;;;;;4702635;30;20053;-60
2022/07/07 11:55:19;;;;;;;1.30;0.40;;;;;;;;;;4718277;30;20053;-60
2022/07/07 11:57:51;;;;;;;2.47;0.50;;;;;;;;;;4718814;30;20065;-57
2022/07/07 12:00:33;;;;;;;2.15;0.50;;;;;;;;;;4717584;30;20057;-59
2022/07/07 12:03:04;;;;;;;1.73;0.43;;;;;;;;;;4718226;30;20556;-60
2022/07/07 12:05:34;;;;;;;2.38;0.32;;;;;;;;;;4718221;30;20434;-60
2022/07/07 12:08:07;;;;;;;4.13;0.60;;;;;;;;;;4717932;30;20477;-59
2022/07/07 12:10:35;;;;;;;;;;;;;;;;;;4718315;30;20045;-57
2022/07/07 12:13:07;;;;;;;2.03;0.50;;;;;;;;;;4717736;30;19927;-52
2022/07/07 12:15:38;;;;;;;1.20;0.40;;;;;;;;;;4718034;30;20076;-59
2022/07/07 12:18:08;;;;;;;3.17;0.50;;;;;;;;;;4717832;30;20059;-60
2022/07/07 12:20:36;;;;;;;2.28;0.40;;;;;;;;;;4717755;30;20049;-55
2022/07/07 12:23:07;;;;;;;2.70;0.95;;;;;;;;;;4717220;30;20510;-57
2022/07/07 12:25:36;;;;;;;1.80;0.50;;;;;;;;;;4717508;30;20049;-56
2022/07/07 12:28:09;;;;;;;1.55;0.20;;;;;;;;;;4724792;30;20045;-54
2022/07/07 12:30:55;;;;;;;1.38;0.40;;;;;;;;;;4735014;30;20136;-56
2022/07/07 12:33:31;;;;;;;1.90;0.60;;;;;;;;;;4727740;30;20484;-57
2022/07/07 12:36:11;;;;;;;2.10;0.45;;;;;;;;;;4735025;30;20061;-60
2022/07/07 12:38:52;;;;;;;4.40;0.43;;;;;;;;;;4734958;30;20506;-57
2022/07/07 12:41:24;;;;;;;1.63;0.28;;;;;;;;;;4735053;30;20080;-60
2022/07/07 12:43:53;;;;;;;2.47;0.50;;;;;;;;;;4734449;30;20049;-59
2022/07/07 12:46:21;;;;;;;1.02;0.40;;;;;;;;;;4734865;30;20060;-58
2022/07/07 12:48:51;;;;;;;1.30;0.40;;;;;;;;;;4734793;30;20045;-61
2022/07/07 12:51:25;;;;;;;0.90;0.30;;;;;;;;;;4721525;30;20490;-59
2022/07/07 12:53:53;;;;;;;0.85;0.30;;;;;;;;;;4717008;30;20115;-60
2022/07/07 12:56:21;;;;;;;1.98;0.50;;;;;;;;;;4701101;30;20061;-60
2022/07/07 12:58:53;;;;;;;2.50;0.20;;;;;;;;;;4717361;30;20056;-60
2022/07/07 13:01:23;;;;;;;1.30;0.40;;;;;;;;;;4710020;30;20131;-58
2022/07/07 13:03:53;;;;;;;0.75;0.20;;;;;;;;;;4717141;30;20309;-56
2022/07/07 13:06:24;;;;;;;2.35;0.57;;;;;;;;;;4716838;30;20052;-56
2022/07/07 13:08:53;;;;;;;2.40;0.32;;;;;;;;;;4701337;30;20073;-56
2022/07/07 13:11:41;;;;;;;1.13;0.52;;;;;;;;;;4716310;30;20059;-56
2022/07/07 13:14:09;;;;;;;0.80;0.40;;;;;;;;;;4716688;30;20060;-54
2022/07/07 13:16:53;;;;;;;1.45;0.50;;;;;;;;;;4716710;30;20060;-56
2022/07/07 13:19:21;;;;;;;0.65;0.40;;;;;;;;;;4716461;30;20131;-54
2022/07/07 13:21:51;;;;;;;0.80;0.40;;;;;;;;;;4716837;30;20396;-60
2022/07/07 13:24:18;;;;;;;1.30;0.20;;;;;;;;;;4716693;30;20076;-55
2022/07/07 13:26:45;;;;;;;0.80;0.35;;;;;;;;;;4716468;30;20049;-58
2022/07/07 13:29:17;;;;;;;0.45;0.40;;;;;;;;;;4716522;30;20045;-56
2022/07/07 13:31:45;;;;;;;1.92;0.40;;;;;;;;;;4716691;30;20049;-57
2022/07/07 13:34:13;;;;;;;1.70;0.40;;;;;;;;;;4716249;30;20518;-59
2022/07/07 13:36:41;;;;;;;2.33;0.45;;;;;;;;;;4716733;30;20056;-59
2022/07/07 13:39:08;;;;;;;1.88;0.40;;;;;;;;;;4716509;30;20052;-56
2022/07/07 13:41:36;;;;;;;1.98;0.35;;;;;;;;;;4716354;30;20387;-59
2022/07/07 13:44:13;;;;;;;1.27;0.45;;;;;;;;;;4716093;30;20053;-57
2022/07/07 13:46:40;;;;;;;1.10;0.30;;;;;;;;;;4716457;30;20518;-59
2022/07/07 13:49:08;;;;;;;2.92;0.57;;;;;;;;;;4716301;30;20057;-56
2022/07/07 13:51:35;;;;;;;1.98;0.50;;;;;;;;;;4731167;30;20048;-57
2022/07/07 13:54:02;;;;;;;1.02;0.47;;;;;;;;;;4733799;30;20065;-58
2022/07/07 13:56:45;;;;;;;1.83;0.40;;;;;;;;;;4733689;30;20057;-55
2022/07/07 13:59:14;;;;;;;0.73;0.40;;;;;;;;;;4733728;30;20052;-56
2022/07/07 14:01:42;;;;;;;1.27;0.47;;;;;;;;;;4733853;30;20047;-55
2022/07/07 14:04:10;;;;;;;1.77;0.47;;;;;;;;;;4733223;30;20130;-55
2022/07/07 14:06:38;;;;;;;22.52;12.85;;;;;;;;;;4733625;30;20052;-60
2022/07/07 14:09:05;;;;;;;6.90;1.20;;;;;;;;;;4733448;30;20040;-55
2022/07/07 14:11:32;;;;;;;0.68;0.38;;;;;;;;;;4733888;30;20128;-60
2022/07/07 14:14:00;;;;;;;0.75;0.30;;;;;;;;;;4733601;30;20053;-58
2022/07/07 14:16:29;;;;;;;2.28;0.40;;;;;;;;;;4733659;30;20057;-59
2022/07/07 14:18:58;;;;;;;8.77;3.33;;;;;;;;;;4733630;30;20072;-54
2022/07/07 14:21:26;;;;;;;6.15;1.65;;;;;;;;;;4732867;30;20064;-59
2022/07/07 14:23:53;;;;;;;4.15;0.60;;;;;;;;;;4734708;30;20052;-59
2022/07/07 14:26:20;;;;;;;1.75;0.35;;;;;;;;;;4728886;30;20410;-57
2022/07/07 14:28:50;;;;;;;1.67;0.45;;;;;;;;;;4736117;30;20386;-57
2022/07/07 14:31:17;;;;;;;1.27;0.40;;;;;;;;;;4735252;30;20552;-56
2022/07/07 14:33:47;;;;;;;0.60;0.30;;;;;;;;;;4735994;30;20070;-57
2022/07/07 14:36:15;;;;;;;1.75;0.60;;;;;;;;;;4719487;30;20273;-55
2022/07/07 14:38:43;;;;;;;4.05;0.60;;;;;;;;;;4735571;30;20423;-56
2022/07/07 14:41:11;;;;;;;55.58;37.88;;;;;;;;;;4735378;30;20047;-55
2022/07/07 14:43:39;;;;;;;7.65;4.03;;;;;;;;;;4735288;30;20036;-54
2022/07/07 14:46:06;;;;;;;0.82;0.40;;;;;;;;;;4735180;30;20525;-56
2022/07/07 14:48:34;;;;;;;1.05;0.40;;;;;;;;;;4735361;30;20041;-51
2022/07/07 14:51:03;;;;;;;0.80;0.30;;;;;;;;;;4735417;30;20110;-57
2022/07/07 14:53:30;;;;;;;2.28;0.32;;;;;;;;;;4735458;30;20106;-54
2022/07/07 14:55:57;;;;;;;1.15;0.50;;;;;;;;;;4735244;30;20044;-59
2022/07/07 14:58:30;;;;;;;3.08;0.63;;;;;;;;;;4735410;30;20053;-55
2022/07/07 15:01:00;;;;;;;2.63;0.50;;;;;;;;;;4735013;30;20588;-56